ANA663 RJTT-RJFU
Flight info
| Callsign | ANA663 |
|---|---|
| Flight time | 1h 28m |
| Altitude | 36000 |
| Route | TIARA GUSRO Y20 KAMMY Y204 OHGIE |
| Aircraft | B763/H-SDE2FGHIJ3J4J5LM1OP2RVWX/LB1D1 |
Departure
| Time | 2026-04-20 05:07 |
|---|---|
| Airport | Tokyo Haneda International Airport (RJTT) |
Arrival
| Time | 2026-04-20 06:35 |
|---|---|
| Airport | Nagasaki Airport (RJFU) |
| Time | Latitude | Longitude | Altitude | Speed | Heading |
|---|---|---|---|---|---|
| 2026-04-20 04:17 | 35.55267 | 139.78874 | 31 ft | 0 kts | 239° |
| 2026-04-20 04:56 | 35.55273 | 139.78886 | 31 ft | 2 kts | 239° |
| 2026-04-20 04:56 | 35.55281 | 139.78903 | 31 ft | 2 kts | 239° |
| 2026-04-20 04:56 | 35.55289 | 139.78919 | 31 ft | 2 kts | 239° |
| 2026-04-20 04:56 | 35.55297 | 139.78934 | 31 ft | 2 kts | 240° |
| 2026-04-20 04:57 | 35.55300 | 139.78952 | 31 ft | 2 kts | 282° |
| 2026-04-20 04:57 | 35.55294 | 139.78967 | 31 ft | 2 kts | 317° |
| 2026-04-20 04:57 | 35.55282 | 139.78978 | 31 ft | 2 kts | 334° |
| 2026-04-20 04:57 | 35.55268 | 139.78986 | 31 ft | 2 kts | 329° |
| 2026-04-20 04:58 | 35.55266 | 139.78989 | 31 ft | 0 kts | 329° |
| 2026-04-20 05:00 | 35.55270 | 139.78986 | 31 ft | 2 kts | 329° |
| 2026-04-20 05:01 | 35.55305 | 139.78960 | 31 ft | 8 kts | 329° |
| 2026-04-20 05:01 | 35.55370 | 139.78929 | 31 ft | 11 kts | 6° |
| 2026-04-20 05:01 | 35.55427 | 139.78993 | 31 ft | 11 kts | 60° |
| 2026-04-20 05:01 | 35.55468 | 139.79082 | 31 ft | 12 kts | 60° |
| 2026-04-20 05:02 | 35.55488 | 139.79170 | 31 ft | 10 kts | 117° |
| 2026-04-20 05:02 | 35.55429 | 139.79224 | 31 ft | 10 kts | 150° |
| 2026-04-20 05:02 | 35.55363 | 139.79271 | 31 ft | 11 kts | 150° |
| 2026-04-20 05:02 | 35.55289 | 139.79323 | 31 ft | 13 kts | 150° |
| 2026-04-20 05:03 | 35.55197 | 139.79388 | 31 ft | 16 kts | 150° |
| 2026-04-20 05:03 | 35.55091 | 139.79463 | 31 ft | 18 kts | 150° |
| 2026-04-20 05:03 | 35.54969 | 139.79550 | 31 ft | 22 kts | 150° |
| 2026-04-20 05:03 | 35.54830 | 139.79649 | 31 ft | 23 kts | 150° |
| 2026-04-20 05:04 | 35.54688 | 139.79750 | 31 ft | 23 kts | 149° |
| 2026-04-20 05:04 | 35.54544 | 139.79852 | 31 ft | 24 kts | 150° |
| 2026-04-20 05:04 | 35.54398 | 139.79956 | 31 ft | 24 kts | 150° |
| 2026-04-20 05:04 | 35.54256 | 139.80057 | 31 ft | 16 kts | 150° |
| 2026-04-20 05:05 | 35.54190 | 139.80115 | 31 ft | 9 kts | 115° |
| 2026-04-20 05:05 | 35.54204 | 139.80188 | 31 ft | 9 kts | 57° |
| 2026-04-20 05:05 | 35.54239 | 139.80258 | 31 ft | 10 kts | 59° |
| 2026-04-20 05:05 | 35.54290 | 139.80290 | 31 ft | 8 kts | 334° |
| 2026-04-20 05:06 | 35.54387 | 139.80220 | 31 ft | 35 kts | 329° |
| 2026-04-20 05:06 | 35.54794 | 139.79930 | 31 ft | 98 kts | 329° |
| 2026-04-20 05:06 | 35.55559 | 139.79387 | 31 ft | 153 kts | 330° |
| 2026-04-20 05:06 | 35.56574 | 139.78662 | 375 ft | 175 kts | 332° |
| 2026-04-20 05:07 | 35.57607 | 139.77966 | 1181 ft | 170 kts | 341° |
| 2026-04-20 05:07 | 35.58882 | 139.77791 | 1179 ft | 204 kts | 18° |
| 2026-04-20 05:07 | 35.60064 | 139.78761 | 1665 ft | 207 kts | 56° |
| 2026-04-20 05:07 | 35.60947 | 139.80075 | 2482 ft | 204 kts | 50° |
| 2026-04-20 05:08 | 35.61957 | 139.81332 | 3097 ft | 210 kts | 47° |
| 2026-04-20 05:08 | 35.63061 | 139.82617 | 3512 ft | 229 kts | 45° |
| 2026-04-20 05:08 | 35.64350 | 139.83977 | 3766 ft | 258 kts | 34° |
| 2026-04-20 05:08 | 35.66091 | 139.84758 | 4332 ft | 275 kts | 12° |
| 2026-04-20 05:09 | 35.67944 | 139.85200 | 5216 ft | 276 kts | 13° |
| 2026-04-20 05:09 | 35.69871 | 139.85384 | 5997 ft | 283 kts | 352° |
| 2026-04-20 05:09 | 35.71708 | 139.84508 | 6791 ft | 288 kts | 326° |
| 2026-04-20 05:09 | 35.73341 | 139.83077 | 7584 ft | 292 kts | 325° |
| 2026-04-20 05:10 | 35.74865 | 139.81422 | 8282 ft | 297 kts | 305° |
| 2026-04-20 05:10 | 35.75711 | 139.79132 | 9005 ft | 299 kts | 280° |
| 2026-04-20 05:10 | 35.75858 | 139.76592 | 9732 ft | 299 kts | 258° |
| 2026-04-20 05:10 | 35.75348 | 139.74142 | 10474 ft | 302 kts | 251° |
| 2026-04-20 05:11 | 35.74834 | 139.71510 | 10549 ft | 333 kts | 256° |
| 2026-04-20 05:11 | 35.74360 | 139.68630 | 10978 ft | 351 kts | 257° |
| 2026-04-20 05:11 | 35.73905 | 139.65686 | 11916 ft | 352 kts | 257° |
| 2026-04-20 05:11 | 35.73461 | 139.62730 | 12752 ft | 355 kts | 257° |
| 2026-04-20 05:12 | 35.73022 | 139.59750 | 13526 ft | 359 kts | 257° |
| 2026-04-20 05:12 | 35.72582 | 139.56760 | 14398 ft | 359 kts | 258° |
| 2026-04-20 05:12 | 35.72142 | 139.53743 | 15232 ft | 360 kts | 258° |
| 2026-04-20 05:12 | 35.71701 | 139.50728 | 15929 ft | 363 kts | 258° |
| 2026-04-20 05:13 | 35.71258 | 139.47693 | 16700 ft | 364 kts | 258° |
| 2026-04-20 05:13 | 35.70810 | 139.44632 | 17460 ft | 366 kts | 258° |
| 2026-04-20 05:13 | 35.70360 | 139.41560 | 18307 ft | 367 kts | 259° |
| 2026-04-20 05:13 | 35.69902 | 139.38444 | 18911 ft | 374 kts | 259° |
| 2026-04-20 05:14 | 35.69443 | 139.35319 | 19765 ft | 373 kts | 259° |
| 2026-04-20 05:14 | 35.68976 | 139.32158 | 20346 ft | 380 kts | 258° |
| 2026-04-20 05:14 | 35.68502 | 139.28941 | 21057 ft | 382 kts | 258° |
| 2026-04-20 05:14 | 35.68029 | 139.25743 | 21757 ft | 384 kts | 259° |
| 2026-04-20 05:15 | 35.67551 | 139.22516 | 22296 ft | 390 kts | 259° |
| 2026-04-20 05:15 | 35.67062 | 139.19225 | 22946 ft | 393 kts | 259° |
| 2026-04-20 05:15 | 35.66573 | 139.15938 | 23574 ft | 396 kts | 259° |
| 2026-04-20 05:15 | 35.66211 | 139.12561 | 24189 ft | 400 kts | 266° |
| 2026-04-20 05:16 | 35.66065 | 139.09149 | 24914 ft | 403 kts | 265° |
| 2026-04-20 05:16 | 35.65902 | 139.05721 | 25571 ft | 407 kts | 266° |
| 2026-04-20 05:16 | 35.65744 | 139.02263 | 26251 ft | 410 kts | 266° |
| 2026-04-20 05:16 | 35.65588 | 138.98778 | 26933 ft | 413 kts | 266° |
| 2026-04-20 05:17 | 35.65426 | 138.95229 | 27528 ft | 416 kts | 266° |
| 2026-04-20 05:17 | 35.65267 | 138.91695 | 28100 ft | 420 kts | 266° |
| 2026-04-20 05:17 | 35.65102 | 138.88098 | 28747 ft | 422 kts | 266° |
| 2026-04-20 05:17 | 35.64937 | 138.84483 | 29265 ft | 426 kts | 266° |
| 2026-04-20 05:18 | 35.64770 | 138.80853 | 29721 ft | 431 kts | 267° |
| 2026-04-20 05:18 | 35.64600 | 138.77179 | 30247 ft | 433 kts | 267° |
| 2026-04-20 05:18 | 35.64427 | 138.73492 | 30765 ft | 435 kts | 267° |
| 2026-04-20 05:18 | 35.64252 | 138.69768 | 31160 ft | 440 kts | 267° |
| 2026-04-20 05:19 | 35.64073 | 138.66028 | 31690 ft | 440 kts | 267° |
| 2026-04-20 05:19 | 35.63876 | 138.62234 | 32125 ft | 443 kts | 267° |
| 2026-04-20 05:19 | 35.63683 | 138.58501 | 32636 ft | 443 kts | 267° |
| 2026-04-20 05:19 | 35.63486 | 138.54761 | 33276 ft | 439 kts | 268° |
| 2026-04-20 05:20 | 35.63290 | 138.51009 | 33770 ft | 439 kts | 268° |
| 2026-04-20 05:20 | 35.63094 | 138.47292 | 34229 ft | 438 kts | 268° |
| 2026-04-20 05:20 | 35.62896 | 138.43567 | 34723 ft | 436 kts | 268° |
| 2026-04-20 05:20 | 35.62700 | 138.39903 | 35262 ft | 431 kts | 267° |
| 2026-04-20 05:21 | 35.62504 | 138.36232 | 35558 ft | 432 kts | 267° |
| 2026-04-20 05:21 | 35.62305 | 138.32548 | 36029 ft | 429 kts | 266° |
| 2026-04-20 05:21 | 35.62106 | 138.28883 | 36037 ft | 426 kts | 266° |
| 2026-04-20 05:22 | 35.61708 | 138.21646 | 36068 ft | 428 kts | 267° |
| 2026-04-20 05:22 | 35.61303 | 138.14337 | 36064 ft | 429 kts | 267° |
| 2026-04-20 05:23 | 35.60896 | 138.07082 | 36050 ft | 426 kts | 267° |
| 2026-04-20 05:23 | 35.60483 | 137.99785 | 36061 ft | 430 kts | 267° |
| 2026-04-20 05:24 | 35.60064 | 137.92467 | 36056 ft | 430 kts | 268° |
| 2026-04-20 05:24 | 35.59643 | 137.85193 | 36046 ft | 429 kts | 268° |
| 2026-04-20 05:25 | 35.59198 | 137.77881 | 36039 ft | 430 kts | 267° |
| 2026-04-20 05:25 | 35.58657 | 137.70583 | 36040 ft | 430 kts | 267° |
| 2026-04-20 05:26 | 35.58115 | 137.63277 | 36038 ft | 430 kts | 267° |
| 2026-04-20 05:26 | 35.57571 | 137.55994 | 36022 ft | 431 kts | 267° |
| 2026-04-20 05:27 | 35.56387 | 137.48755 | 36008 ft | 435 kts | 258° |
| 2026-04-20 05:27 | 35.54851 | 137.41594 | 36005 ft | 436 kts | 259° |
| 2026-04-20 05:28 | 35.53286 | 137.34412 | 36002 ft | 435 kts | 258° |
| 2026-04-20 05:28 | 35.51710 | 137.27232 | 36007 ft | 438 kts | 258° |
| 2026-04-20 05:29 | 35.50115 | 137.20007 | 36010 ft | 437 kts | 258° |
| 2026-04-20 05:29 | 35.48520 | 137.12801 | 36004 ft | 439 kts | 258° |
| 2026-04-20 05:30 | 35.46923 | 137.05612 | 35998 ft | 440 kts | 258° |
| 2026-04-20 05:30 | 35.45303 | 136.98346 | 35972 ft | 440 kts | 259° |
| 2026-04-20 05:31 | 35.43691 | 136.91122 | 35971 ft | 441 kts | 258° |
| 2026-04-20 05:31 | 35.42067 | 136.83887 | 35963 ft | 438 kts | 259° |
| 2026-04-20 05:32 | 35.40456 | 136.76723 | 35968 ft | 439 kts | 259° |
| 2026-04-20 05:32 | 35.38823 | 136.69479 | 35970 ft | 442 kts | 259° |
| 2026-04-20 05:33 | 35.37197 | 136.62294 | 35985 ft | 441 kts | 259° |
| 2026-04-20 05:33 | 35.35557 | 136.55067 | 35980 ft | 438 kts | 259° |
| 2026-04-20 05:34 | 35.33925 | 136.47900 | 35996 ft | 439 kts | 259° |
| 2026-04-20 05:34 | 35.31453 | 136.37071 | 35961 ft | 441 kts | 259° |
| 2026-04-20 05:35 | 35.29799 | 136.29857 | 35966 ft | 441 kts | 259° |
| 2026-04-20 05:35 | 35.28149 | 136.22681 | 35941 ft | 439 kts | 259° |
| 2026-04-20 05:36 | 35.26500 | 136.15529 | 35936 ft | 439 kts | 259° |
| 2026-04-20 05:36 | 35.24833 | 136.08319 | 35933 ft | 440 kts | 259° |
| 2026-04-20 05:37 | 35.23174 | 136.01166 | 35928 ft | 438 kts | 259° |
| 2026-04-20 05:37 | 35.21504 | 135.93985 | 35927 ft | 439 kts | 259° |
| 2026-04-20 05:38 | 35.19836 | 135.86835 | 35933 ft | 439 kts | 259° |
| 2026-04-20 05:38 | 35.18155 | 135.79671 | 35946 ft | 438 kts | 259° |
| 2026-04-20 05:39 | 35.16907 | 135.72498 | 35949 ft | 434 kts | 264° |
| 2026-04-20 05:39 | 35.15733 | 135.65254 | 35942 ft | 435 kts | 264° |
| 2026-04-20 05:40 | 35.14530 | 135.58049 | 35948 ft | 434 kts | 264° |
| 2026-04-20 05:40 | 35.13321 | 135.50893 | 35930 ft | 431 kts | 264° |
| 2026-04-20 05:41 | 35.12092 | 135.43652 | 35934 ft | 434 kts | 264° |
| 2026-04-20 05:41 | 35.10874 | 135.36510 | 35940 ft | 433 kts | 264° |
| 2026-04-20 05:42 | 35.09638 | 135.29301 | 35944 ft | 433 kts | 263° |
| 2026-04-20 05:42 | 35.08400 | 135.22111 | 35954 ft | 431 kts | 263° |
| 2026-04-20 05:43 | 35.07171 | 135.14993 | 35927 ft | 430 kts | 263° |
| 2026-04-20 05:43 | 35.05938 | 135.07871 | 35929 ft | 431 kts | 264° |
| 2026-04-20 05:44 | 35.04699 | 135.00755 | 35927 ft | 431 kts | 263° |
| 2026-04-20 05:44 | 35.03453 | 134.93613 | 35924 ft | 429 kts | 263° |
| 2026-04-20 05:45 | 35.02831 | 134.90071 | 36194 ft | 428 kts | 264° |
| 2026-04-20 05:45 | 35.02205 | 134.86493 | 35874 ft | 431 kts | 263° |
| 2026-04-20 05:45 | 35.00966 | 134.79448 | 35937 ft | 425 kts | 263° |
| 2026-04-20 05:46 | 34.99723 | 134.72401 | 35937 ft | 427 kts | 263° |
| 2026-04-20 05:46 | 34.98166 | 134.65359 | 35932 ft | 431 kts | 258° |
| 2026-04-20 05:47 | 34.96388 | 134.58426 | 35940 ft | 429 kts | 258° |
| 2026-04-20 05:47 | 34.94602 | 134.51524 | 35930 ft | 429 kts | 258° |
| 2026-04-20 05:48 | 34.92797 | 134.44579 | 35940 ft | 432 kts | 258° |
| 2026-04-20 05:48 | 34.90987 | 134.37643 | 35935 ft | 429 kts | 258° |
| 2026-04-20 05:49 | 34.89166 | 134.30679 | 35919 ft | 430 kts | 258° |
| 2026-04-20 05:49 | 34.87348 | 134.23750 | 35922 ft | 429 kts | 257° |
| 2026-04-20 05:50 | 34.85538 | 134.16862 | 35924 ft | 427 kts | 258° |
| 2026-04-20 05:50 | 34.83720 | 134.09969 | 35924 ft | 428 kts | 257° |
| 2026-04-20 05:51 | 34.81903 | 134.03090 | 35925 ft | 429 kts | 257° |
| 2026-04-20 05:51 | 34.80072 | 133.96188 | 35915 ft | 426 kts | 258° |
| 2026-04-20 05:52 | 34.78256 | 133.89345 | 35923 ft | 428 kts | 258° |
| 2026-04-20 05:52 | 34.76413 | 133.82430 | 35920 ft | 428 kts | 258° |
| 2026-04-20 05:53 | 34.74585 | 133.75588 | 35928 ft | 425 kts | 258° |
| 2026-04-20 05:53 | 34.72765 | 133.68784 | 35929 ft | 426 kts | 258° |
| 2026-04-20 05:54 | 34.70931 | 133.61951 | 35919 ft | 425 kts | 257° |
| 2026-04-20 05:54 | 34.69111 | 133.55191 | 35915 ft | 422 kts | 258° |
| 2026-04-20 05:55 | 34.67278 | 133.48387 | 35907 ft | 424 kts | 258° |
| 2026-04-20 05:55 | 34.65447 | 133.41625 | 35907 ft | 421 kts | 258° |
| 2026-04-20 05:56 | 34.63621 | 133.34888 | 35908 ft | 423 kts | 257° |
| 2026-04-20 05:56 | 34.61766 | 133.28055 | 35925 ft | 423 kts | 258° |
| 2026-04-20 05:57 | 34.59927 | 133.21310 | 35905 ft | 422 kts | 257° |
| 2026-04-20 05:57 | 34.58081 | 133.14548 | 35927 ft | 420 kts | 257° |
| 2026-04-20 05:58 | 34.56245 | 133.07840 | 35925 ft | 421 kts | 257° |
| 2026-04-20 05:58 | 34.54408 | 133.01152 | 35917 ft | 418 kts | 258° |
| 2026-04-20 05:59 | 34.52562 | 132.94440 | 35917 ft | 419 kts | 257° |
| 2026-04-20 05:59 | 34.50716 | 132.87746 | 35916 ft | 419 kts | 257° |
| 2026-04-20 06:00 | 34.48880 | 132.81102 | 35917 ft | 419 kts | 257° |
| 2026-04-20 06:00 | 34.47027 | 132.74416 | 35902 ft | 417 kts | 257° |
| 2026-04-20 06:01 | 34.45176 | 132.67749 | 35904 ft | 418 kts | 257° |
| 2026-04-20 06:01 | 34.43323 | 132.61087 | 35890 ft | 418 kts | 257° |
| 2026-04-20 06:02 | 34.41473 | 132.54462 | 35885 ft | 417 kts | 257° |
| 2026-04-20 06:02 | 34.39616 | 132.47816 | 35886 ft | 417 kts | 257° |
| 2026-04-20 06:03 | 34.37750 | 132.41162 | 35900 ft | 416 kts | 257° |
| 2026-04-20 06:03 | 34.35892 | 132.34546 | 35902 ft | 415 kts | 256° |
| 2026-04-20 06:04 | 34.34031 | 132.27937 | 35907 ft | 418 kts | 256° |
| 2026-04-20 06:04 | 34.32172 | 132.21350 | 35901 ft | 414 kts | 256° |
| 2026-04-20 06:05 | 34.30300 | 132.14737 | 35906 ft | 415 kts | 257° |
| 2026-04-20 06:05 | 34.28432 | 132.08147 | 35910 ft | 416 kts | 257° |
| 2026-04-20 06:06 | 34.26556 | 132.01547 | 35901 ft | 415 kts | 256° |
| 2026-04-20 06:06 | 34.24678 | 131.94955 | 35923 ft | 417 kts | 257° |
| 2026-04-20 06:07 | 34.22783 | 131.88325 | 35902 ft | 416 kts | 257° |
| 2026-04-20 06:07 | 34.20902 | 131.81752 | 35919 ft | 415 kts | 257° |
| 2026-04-20 06:08 | 34.19027 | 131.75218 | 35908 ft | 412 kts | 257° |
| 2026-04-20 06:08 | 34.17141 | 131.68655 | 35910 ft | 414 kts | 256° |
| 2026-04-20 06:09 | 34.15257 | 131.62126 | 35897 ft | 406 kts | 257° |
| 2026-04-20 06:09 | 34.14345 | 131.58978 | 35872 ft | 392 kts | 257° |
| 2026-04-20 06:09 | 34.13460 | 131.55919 | 35763 ft | 380 kts | 257° |
| 2026-04-20 06:10 | 34.12602 | 131.52951 | 35294 ft | 379 kts | 257° |
| 2026-04-20 06:10 | 34.11730 | 131.49924 | 34797 ft | 385 kts | 257° |
| 2026-04-20 06:10 | 34.10838 | 131.46837 | 34308 ft | 396 kts | 257° |
| 2026-04-20 06:10 | 34.09926 | 131.43689 | 33801 ft | 401 kts | 257° |
| 2026-04-20 06:11 | 34.09011 | 131.40541 | 33266 ft | 402 kts | 256° |
| 2026-04-20 06:11 | 34.08083 | 131.37355 | 32721 ft | 406 kts | 256° |
| 2026-04-20 06:11 | 34.07136 | 131.34094 | 32194 ft | 414 kts | 255° |
| 2026-04-20 06:11 | 34.06023 | 131.30844 | 31679 ft | 425 kts | 249° |
| 2026-04-20 06:12 | 34.04720 | 131.27669 | 31152 ft | 429 kts | 249° |
| 2026-04-20 06:12 | 34.03401 | 131.24448 | 30593 ft | 429 kts | 248° |
| 2026-04-20 06:12 | 34.02088 | 131.21258 | 30047 ft | 425 kts | 248° |
| 2026-04-20 06:12 | 34.00777 | 131.18088 | 29492 ft | 419 kts | 247° |
| 2026-04-20 06:13 | 33.99503 | 131.15007 | 28950 ft | 415 kts | 247° |
| 2026-04-20 06:13 | 33.98214 | 131.11903 | 28404 ft | 411 kts | 247° |
| 2026-04-20 06:13 | 33.96947 | 131.08850 | 27860 ft | 409 kts | 247° |
| 2026-04-20 06:13 | 33.95677 | 131.05795 | 27317 ft | 408 kts | 247° |
| 2026-04-20 06:14 | 33.94406 | 131.02740 | 26772 ft | 404 kts | 247° |
| 2026-04-20 06:14 | 33.93171 | 130.99776 | 26243 ft | 400 kts | 247° |
| 2026-04-20 06:14 | 33.91931 | 130.96799 | 25718 ft | 397 kts | 246° |
| 2026-04-20 06:14 | 33.90688 | 130.93822 | 25220 ft | 396 kts | 246° |
| 2026-04-20 06:15 | 33.89469 | 130.90897 | 24734 ft | 394 kts | 246° |
| 2026-04-20 06:15 | 33.88226 | 130.87926 | 24235 ft | 392 kts | 246° |
| 2026-04-20 06:15 | 33.87022 | 130.85045 | 23767 ft | 389 kts | 246° |
| 2026-04-20 06:15 | 33.85812 | 130.82155 | 23305 ft | 386 kts | 246° |
| 2026-04-20 06:16 | 33.84607 | 130.79277 | 22933 ft | 379 kts | 246° |
| 2026-04-20 06:16 | 33.83424 | 130.76457 | 22489 ft | 379 kts | 246° |
| 2026-04-20 06:16 | 33.82242 | 130.73639 | 22054 ft | 379 kts | 246° |
| 2026-04-20 06:16 | 33.81059 | 130.70825 | 21584 ft | 377 kts | 246° |
| 2026-04-20 06:17 | 33.79884 | 130.68030 | 21131 ft | 373 kts | 246° |
| 2026-04-20 06:17 | 33.78713 | 130.65243 | 20700 ft | 370 kts | 246° |
| 2026-04-20 06:17 | 33.77561 | 130.62508 | 20255 ft | 369 kts | 246° |
| 2026-04-20 06:17 | 33.76409 | 130.59775 | 19821 ft | 365 kts | 247° |
| 2026-04-20 06:18 | 33.75268 | 130.57068 | 19387 ft | 365 kts | 246° |
| 2026-04-20 06:18 | 33.74129 | 130.54367 | 18953 ft | 361 kts | 246° |
| 2026-04-20 06:18 | 33.72996 | 130.51688 | 18522 ft | 359 kts | 247° |
| 2026-04-20 06:18 | 33.71874 | 130.49031 | 18108 ft | 358 kts | 247° |
| 2026-04-20 06:19 | 33.70749 | 130.46373 | 17666 ft | 354 kts | 247° |
| 2026-04-20 06:19 | 33.69638 | 130.43747 | 17280 ft | 354 kts | 246° |
| 2026-04-20 06:19 | 33.68490 | 130.41162 | 16905 ft | 355 kts | 241° |
| 2026-04-20 06:19 | 33.66877 | 130.38924 | 16577 ft | 359 kts | 225° |
| 2026-04-20 06:20 | 33.64739 | 130.37254 | 16228 ft | 368 kts | 213° |
| 2026-04-20 06:20 | 33.62465 | 130.35847 | 15843 ft | 367 kts | 213° |
| 2026-04-20 06:20 | 33.60194 | 130.34427 | 15449 ft | 367 kts | 212° |
| 2026-04-20 06:20 | 33.57945 | 130.33035 | 15069 ft | 365 kts | 212° |
| 2026-04-20 06:21 | 33.55685 | 130.31642 | 14685 ft | 363 kts | 212° |
| 2026-04-20 06:21 | 33.53431 | 130.30255 | 14290 ft | 364 kts | 212° |
| 2026-04-20 06:21 | 33.51208 | 130.28893 | 13890 ft | 362 kts | 212° |
| 2026-04-20 06:21 | 33.48961 | 130.27513 | 13497 ft | 361 kts | 212° |
| 2026-04-20 06:22 | 33.46755 | 130.26161 | 13091 ft | 356 kts | 212° |
| 2026-04-20 06:22 | 33.44561 | 130.24818 | 12699 ft | 353 kts | 212° |
| 2026-04-20 06:22 | 33.42379 | 130.23482 | 12338 ft | 353 kts | 211° |
| 2026-04-20 06:22 | 33.40199 | 130.22150 | 11933 ft | 347 kts | 211° |
| 2026-04-20 06:23 | 33.38033 | 130.20875 | 11539 ft | 345 kts | 205° |
| 2026-04-20 06:23 | 33.35734 | 130.20204 | 11169 ft | 345 kts | 188° |
| 2026-04-20 06:23 | 33.33340 | 130.20213 | 10731 ft | 342 kts | 182° |
| 2026-04-20 06:23 | 33.30967 | 130.20091 | 10391 ft | 332 kts | 188° |
| 2026-04-20 06:24 | 33.28727 | 130.19867 | 10243 ft | 320 kts | 188° |
| 2026-04-20 06:24 | 33.26555 | 130.19582 | 10093 ft | 308 kts | 189° |
| 2026-04-20 06:24 | 33.24449 | 130.19276 | 9854 ft | 297 kts | 190° |
| 2026-04-20 06:24 | 33.22434 | 130.18965 | 9474 ft | 291 kts | 190° |
| 2026-04-20 06:25 | 33.20452 | 130.18649 | 9140 ft | 284 kts | 190° |
| 2026-04-20 06:25 | 33.18503 | 130.18335 | 8792 ft | 279 kts | 190° |
| 2026-04-20 06:25 | 33.16604 | 130.18025 | 8450 ft | 274 kts | 190° |
| 2026-04-20 06:25 | 33.14736 | 130.17722 | 8118 ft | 269 kts | 190° |
| 2026-04-20 06:26 | 33.12888 | 130.17418 | 7833 ft | 267 kts | 190° |
| 2026-04-20 06:26 | 33.11047 | 130.17116 | 7488 ft | 268 kts | 190° |
| 2026-04-20 06:26 | 33.09194 | 130.16811 | 7142 ft | 268 kts | 189° |
| 2026-04-20 06:26 | 33.07339 | 130.16507 | 6803 ft | 269 kts | 189° |
| 2026-04-20 06:27 | 33.05490 | 130.16203 | 6472 ft | 270 kts | 188° |
| 2026-04-20 06:27 | 33.03623 | 130.15898 | 6131 ft | 270 kts | 188° |
| 2026-04-20 06:27 | 33.01743 | 130.15591 | 5800 ft | 270 kts | 188° |
| 2026-04-20 06:27 | 32.99882 | 130.15288 | 5531 ft | 268 kts | 188° |
| 2026-04-20 06:28 | 32.98060 | 130.14989 | 5282 ft | 265 kts | 188° |
| 2026-04-20 06:28 | 32.96245 | 130.14693 | 5045 ft | 262 kts | 188° |
| 2026-04-20 06:28 | 32.94435 | 130.14398 | 4835 ft | 257 kts | 188° |
| 2026-04-20 06:28 | 32.92690 | 130.14113 | 4625 ft | 253 kts | 188° |
| 2026-04-20 06:29 | 32.90936 | 130.13826 | 4399 ft | 250 kts | 189° |
| 2026-04-20 06:29 | 32.89238 | 130.13550 | 4146 ft | 244 kts | 189° |
| 2026-04-20 06:29 | 32.87571 | 130.13277 | 3921 ft | 237 kts | 189° |
| 2026-04-20 06:29 | 32.85983 | 130.13019 | 3779 ft | 225 kts | 189° |
| 2026-04-20 06:30 | 32.84490 | 130.12613 | 3546 ft | 216 kts | 208° |
| 2026-04-20 06:30 | 32.83369 | 130.11511 | 3415 ft | 204 kts | 227° |
| 2026-04-20 06:30 | 32.82394 | 130.10292 | 3246 ft | 200 kts | 226° |
| 2026-04-20 06:30 | 32.81450 | 130.09105 | 3094 ft | 195 kts | 227° |
| 2026-04-20 06:31 | 32.80546 | 130.07945 | 2938 ft | 191 kts | 228° |
| 2026-04-20 06:31 | 32.79696 | 130.06755 | 2790 ft | 186 kts | 242° |
| 2026-04-20 06:31 | 32.79481 | 130.05307 | 2648 ft | 180 kts | 284° |
| 2026-04-20 06:31 | 32.80127 | 130.04040 | 2551 ft | 182 kts | 313° |
| 2026-04-20 06:32 | 32.81015 | 130.02983 | 2475 ft | 175 kts | 313° |
| 2026-04-20 06:32 | 32.81889 | 130.01959 | 2191 ft | 177 kts | 314° |
| 2026-04-20 06:32 | 32.82756 | 130.00983 | 2006 ft | 170 kts | 315° |
| 2026-04-20 06:32 | 32.83608 | 130.00041 | 1860 ft | 160 kts | 315° |
| 2026-04-20 06:33 | 32.84421 | 129.99155 | 1691 ft | 158 kts | 316° |
| 2026-04-20 06:33 | 32.85217 | 129.98292 | 1466 ft | 153 kts | 316° |
| 2026-04-20 06:33 | 32.85986 | 129.97466 | 1289 ft | 142 kts | 316° |
| 2026-04-20 06:33 | 32.86713 | 129.96684 | 1051 ft | 140 kts | 316° |
| 2026-04-20 06:34 | 32.87429 | 129.95918 | 887 ft | 140 kts | 315° |
| 2026-04-20 06:34 | 32.88155 | 129.95140 | 726 ft | 142 kts | 315° |
| 2026-04-20 06:34 | 32.89649 | 129.93543 | 316 ft | 145 kts | 315° |
| 2026-04-20 06:35 | 32.90386 | 129.92746 | 147 ft | 142 kts | 315° |
| 2026-04-20 06:35 | 32.91122 | 129.91959 | 25 ft | 139 kts | 315° |
| 2026-04-20 06:35 | 32.91693 | 129.91344 | 17 ft | 76 kts | 318° |
| 2026-04-20 06:35 | 32.91907 | 129.91115 | 18 ft | 16 kts | 316° |
| 2026-04-20 06:36 | 32.91953 | 129.91101 | 19 ft | 7 kts | 16° |
| 2026-04-20 06:36 | 32.91999 | 129.91144 | 19 ft | 9 kts | 47° |
| 2026-04-20 06:36 | 32.92043 | 129.91206 | 19 ft | 9 kts | 69° |
| 2026-04-20 06:36 | 32.92018 | 129.91275 | 19 ft | 9 kts | 136° |
| 2026-04-20 06:37 | 32.91961 | 129.91336 | 18 ft | 13 kts | 137° |
| 2026-04-20 06:37 | 32.91881 | 129.91422 | 18 ft | 17 kts | 138° |
| 2026-04-20 06:37 | 32.91782 | 129.91527 | 19 ft | 21 kts | 138° |
| 2026-04-20 06:37 | 32.91663 | 129.91655 | 19 ft | 24 kts | 138° |
| 2026-04-20 06:38 | 32.91528 | 129.91798 | 21 ft | 27 kts | 137° |
| 2026-04-20 06:38 | 32.91389 | 129.91946 | 22 ft | 18 kts | 138° |
| 2026-04-20 06:38 | 32.91328 | 129.92013 | 23 ft | 6 kts | 139° |
| 2026-04-20 06:38 | 32.91293 | 129.92050 | 24 ft | 6 kts | 131° |
| 2026-04-20 06:39 | 32.91293 | 129.92085 | 24 ft | 4 kts | 45° |
| 2026-04-20 06:39 | 32.91316 | 129.92116 | 25 ft | 5 kts | 47° |
| 2026-04-20 06:39 | 32.91343 | 129.92151 | 26 ft | 6 kts | 48° |
| 2026-04-20 06:39 | 32.91361 | 129.92175 | 27 ft | 1 kts | 47° |
| 2026-04-20 06:40 | 32.91369 | 129.92186 | 27 ft | 0 kts | 47° |